Share

Fort Yukon, AK

10:50 PM AKDT on April 24, 2014 (GMT -0800)
Fort Yukon (PFYU) Elev 430 ft | 66.57 °N, 145.27 °W | Change Station

Current weather conditions updated 14 minutes ago

Overcast
Overcast
34 °F
Feels Like 34 °F
N
0
Wind Variable Wind from North
Sunrise 5:23 AM
Sunset 10:01 PM
Moon Waning Crescent

Tomorrow is forecast to be Much Warmer than today. Mix of rain and snow.

Pressure 29.63 in
Visibility 10.0 miles
Clouds Mostly Cloudy 300 ft
Overcast 11000 ft
Dew Point 30 °F
Humidity 87%
Rainfall 0.00 in
Snow Depth 14 in
UV 0 out of 16
Pollen Not available.
Air Quality Not available.
Flu Activity Sporadic
METAR PFYU 250636Z 00000KT 10SM BKN003 OVC110 01/M01 A2963 RMK AO1

More Conditions Fewer Conditions

Pressure 29.63 in
Visibility 10.0 miles
Clouds Mostly Cloudy 300 ft
Overcast 11000 ft
Dew Point 30 °F
Humidity 87%
Rainfall 0.00 in
Snow Depth 14 in
UV 0 out of 16
Pollen Not available.
Air Quality Not available.
Flu Activity Sporadic
METAR PFYU 250636Z 00000KT 10SM BKN003 OVC110 01/M01 A2963 RMK AO1

More Conditions Fewer Conditions

10-Day Weather Forecast

Almanac

Astronomy

Apr. 24, 2014 Rise Set
Actual Time 5:23 AM AKDT 10:01 PM AKDT
Civil Twilight 4:10 AM AKDT 11:16 PM AKDT
Nautical Twilight 2:13 AM AKDT 1:08 AM AKDT
Astronomical Twilight Sun does not rise Sun does not rise
Moon 4:47 AM AKDT (4/24) 3:30 PM AKDT (4/24)
Length of Visible Light 19h 05m
Length of Day
16h 37m
Tomorrow will be 7m 45s longer.
Waning Crescent, 19% of the Moon is Illuminated
Apr 25
Waning Crescent
Apr 29
New
May 6
First Quarter
May 14
Full
May 21
Last Quarter

Community

  • Deer in evening light
    Deer in evening light
  • Critter
    Critter
  • Jone Runs Falls
    Jone Runs Falls
  • Easter in Shenandoah National Park
    Easter in Shenandoah National Park
  • Sunset at Apalachicola Bay, Florida
    Sunset at Apalachicola Bay, Florida

WunderPhotos

Upload Photos

1,704,870 photos uploaded!

WunderBlogs® & News

Nearby

Snow Depth

Station Depth Elevation
Fort Yukon 14 in 430 ft
Eagle Summit 11 in 3650 ft
Mt. Ryan 19 in 2800 ft
Monument Creek 8 in 1850 ft
Little Chena Ridge 5 in 2000 ft

Coastal Water Temperatures

Place Temperature
No Stations Reporting

Earthquake Activity

City Distance Mag. Time & Date
No recent earthquake activity has been reported nearby.
Minimum magnitude displayed is 2.5.

Nearby Weather Stations

Station Location Temp. Windchill Dew Point Humidity Wind Precip. Elev Updated Type
RAWS FT. YUKON AK, Chalkyitsik, AK 34 °F 34 °F 33 °F 96% North  at  0 mph 0.00 in / hr 464 ft 9:52 PM AKDT MADIS
MesoWest FORT YUKON , Fort Yukon, AK 35 °F 35 °F 34 °F 96% North  at  - 0.00 in / hr 430 ft 9:00 PM AKDT MADIS

Show More Stations Show Fewer Stations

What do you think?

We're not finished. Please let us know what you like, what you don't like, and what you are still missing.